Terminal Aerodrome Forecast
Issued by NWS Denver/Boulder, CO

Home | Current Version | Previous Version | Text Only | Print | Product List | Glossary On
Versions: 1 2 3 4 5 6 7 8 9 10 11 12 13 14 15 16 17 18 19 20 21 22 23 24 25 26 27 28 29 30 31 32 33 34 35 36 37 38 39 40 41 42 43 44 45 46 47 48 49 50
361
FTUS45 KBOU 231522 AAB
TAFDEN
TAF AMD
KDEN 231522Z 2315/2418 09007KT P6SM VCSH BKN008 OVC012
     FM231630 06007KT 2SM -FZDZSN BR SCT004 BKN006 OVC010
      TEMPO 2317/2319 1SM -FZDZSN BR OVC004
     FM231900 03015KT 4SM -SHSN BR BKN010 OVC020
      TEMPO 2322/2401 2SM -SHSN OVC010
     FM240100 01015G23KT 3SM -SN BR SCT008 BKN012 OVC020
      TEMPO 2401/2405 1SM -SN BR BKN005
     FM240900 02009KT P6SM SCT008 OVC015=

USA.gov is the U.S. government's official web portal to all federal, state and local government web resources and services.